sensor_id;sensor_type;location;lat;lon;timestamp;P1;durP1;ratioP1;P2;durP2;ratioP2
17848;SDS011;9050;48.746;9.232;2022-09-09T00:00:53;0.40;;;0.40;;
17848;SDS011;9050;48.746;9.232;2022-09-09T00:03:26;0.30;;;0.30;;
17848;SDS011;9050;48.746;9.232;2022-09-09T00:06:02;0.40;;;0.40;;
17848;SDS011;9050;48.746;9.232;2022-09-09T00:08:37;0.30;;;0.30;;
17848;SDS011;9050;48.746;9.232;2022-09-09T00:11:13;0.40;;;0.40;;
17848;SDS011;9050;48.746;9.232;2022-09-09T00:13:51;0.50;;;0.50;;
17848;SDS011;9050;48.746;9.232;2022-09-09T00:16:21;0.50;;;0.50;;
17848;SDS011;9050;48.746;9.232;2022-09-09T00:18:53;0.47;;;0.47;;
17848;SDS011;9050;48.746;9.232;2022-09-09T00:21:25;0.40;;;0.40;;
17848;SDS011;9050;48.746;9.232;2022-09-09T00:23:58;0.40;;;0.40;;
17848;SDS011;9050;48.746;9.232;2022-09-09T00:26:32;0.50;;;0.50;;
17848;SDS011;9050;48.746;9.232;2022-09-09T00:29:05;0.40;;;0.40;;
17848;SDS011;9050;48.746;9.232;2022-09-09T00:31:40;0.43;;;0.43;;
17848;SDS011;9050;48.746;9.232;2022-09-09T00:34:09;0.30;;;0.30;;
17848;SDS011;9050;48.746;9.232;2022-09-09T00:36:40;0.30;;;0.30;;
17848;SDS011;9050;48.746;9.232;2022-09-09T00:39:09;0.30;;;0.30;;
17848;SDS011;9050;48.746;9.232;2022-09-09T00:41:44;0.30;;;0.30;;
17848;SDS011;9050;48.746;9.232;2022-09-09T00:44:25;0.30;;;0.30;;
17848;SDS011;9050;48.746;9.232;2022-09-09T00:47:01;0.30;;;0.30;;
17848;SDS011;9050;48.746;9.232;2022-09-09T00:49:39;0.30;;;0.30;;
17848;SDS011;9050;48.746;9.232;2022-09-09T00:52:19;0.30;;;0.30;;
17848;SDS011;9050;48.746;9.232;2022-09-09T00:54:58;0.30;;;0.30;;
17848;SDS011;9050;48.746;9.232;2022-09-09T00:57:31;0.30;;;0.30;;
17848;SDS011;9050;48.746;9.232;2022-09-09T01:02:50;0.30;;;0.30;;
17848;SDS011;9050;48.746;9.232;2022-09-09T01:05:24;0.30;;;0.30;;
17848;SDS011;9050;48.746;9.232;2022-09-09T01:07:58;0.40;;;0.40;;
17848;SDS011;9050;48.746;9.232;2022-09-09T01:10:30;0.30;;;0.30;;
17848;SDS011;9050;48.746;9.232;2022-09-09T01:13:08;0.25;;;0.25;;
17848;SDS011;9050;48.746;9.232;2022-09-09T01:15:41;0.30;;;0.30;;
17848;SDS011;9050;48.746;9.232;2022-09-09T01:18:11;0.20;;;0.20;;
17848;SDS011;9050;48.746;9.232;2022-09-09T01:20:44;0.35;;;0.35;;
17848;SDS011;9050;48.746;9.232;2022-09-09T01:23:25;0.30;;;0.30;;
17848;SDS011;9050;48.746;9.232;2022-09-09T01:26:10;0.40;;;0.40;;
17848;SDS011;9050;48.746;9.232;2022-09-09T01:28:43;0.30;;;0.30;;
17848;SDS011;9050;48.746;9.232;2022-09-09T01:31:14;0.30;;;0.30;;
17848;SDS011;9050;48.746;9.232;2022-09-09T01:33:44;0.43;;;0.43;;
17848;SDS011;9050;48.746;9.232;2022-09-09T01:36:12;0.30;;;0.30;;
17848;SDS011;9050;48.746;9.232;2022-09-09T01:38:43;0.40;;;0.40;;
17848;SDS011;9050;48.746;9.232;2022-09-09T01:41:12;0.30;;;0.30;;
17848;SDS011;9050;48.746;9.232;2022-09-09T01:43:38;0.30;;;0.30;;
17848;SDS011;9050;48.746;9.232;2022-09-09T01:46:05;0.30;;;0.30;;
17848;SDS011;9050;48.746;9.232;2022-09-09T01:48:32;0.30;;;0.30;;
17848;SDS011;9050;48.746;9.232;2022-09-09T01:50:59;0.30;;;0.30;;
17848;SDS011;9050;48.746;9.232;2022-09-09T01:53:26;0.30;;;0.30;;
17848;SDS011;9050;48.746;9.232;2022-09-09T01:56:01;0.20;;;0.20;;
17848;SDS011;9050;48.746;9.232;2022-09-09T01:58:41;0.30;;;0.30;;
17848;SDS011;9050;48.746;9.232;2022-09-09T02:01:17;0.30;;;0.30;;
17848;SDS011;9050;48.746;9.232;2022-09-09T02:03:52;0.32;;;0.32;;
17848;SDS011;9050;48.746;9.232;2022-09-09T02:06:25;0.30;;;0.30;;
17848;SDS011;9050;48.746;9.232;2022-09-09T02:08:56;0.40;;;0.40;;
17848;SDS011;9050;48.746;9.232;2022-09-09T02:11:26;0.40;;;0.40;;
17848;SDS011;9050;48.746;9.232;2022-09-09T02:13:56;0.40;;;0.40;;
17848;SDS011;9050;48.746;9.232;2022-09-09T02:16:27;0.30;;;0.30;;
17848;SDS011;9050;48.746;9.232;2022-09-09T02:19:00;0.20;;;0.20;;
17848;SDS011;9050;48.746;9.232;2022-09-09T02:21:32;0.30;;;0.30;;
17848;SDS011;9050;48.746;9.232;2022-09-09T02:24:02;0.30;;;0.30;;
17848;SDS011;9050;48.746;9.232;2022-09-09T02:26:33;0.30;;;0.30;;
17848;SDS011;9050;48.746;9.232;2022-09-09T02:29:04;0.30;;;0.30;;
17848;SDS011;9050;48.746;9.232;2022-09-09T02:31:35;0.30;;;0.30;;
17848;SDS011;9050;48.746;9.232;2022-09-09T02:34:04;0.40;;;0.40;;
17848;SDS011;9050;48.746;9.232;2022-09-09T02:36:35;0.47;;;0.47;;
17848;SDS011;9050;48.746;9.232;2022-09-09T02:39:04;0.30;;;0.30;;
17848;SDS011;9050;48.746;9.232;2022-09-09T02:41:35;0.30;;;0.30;;
17848;SDS011;9050;48.746;9.232;2022-09-09T02:44:08;0.50;;;0.50;;
17848;SDS011;9050;48.746;9.232;2022-09-09T02:46:41;0.40;;;0.40;;
17848;SDS011;9050;48.746;9.232;2022-09-09T02:49:19;0.30;;;0.30;;
17848;SDS011;9050;48.746;9.232;2022-09-09T02:51:56;0.40;;;0.40;;
17848;SDS011;9050;48.746;9.232;2022-09-09T02:54:27;0.40;;;0.40;;
17848;SDS011;9050;48.746;9.232;2022-09-09T02:56:57;0.30;;;0.30;;
17848;SDS011;9050;48.746;9.232;2022-09-09T02:59:30;0.40;;;0.40;;
17848;SDS011;9050;48.746;9.232;2022-09-09T03:01:58;0.40;;;0.40;;
17848;SDS011;9050;48.746;9.232;2022-09-09T03:04:26;0.30;;;0.30;;
17848;SDS011;9050;48.746;9.232;2022-09-09T03:06:53;0.40;;;0.40;;
17848;SDS011;9050;48.746;9.232;2022-09-09T03:09:20;0.40;;;0.40;;
17848;SDS011;9050;48.746;9.232;2022-09-09T03:11:47;0.30;;;0.30;;
17848;SDS011;9050;48.746;9.232;2022-09-09T03:14:14;0.40;;;0.40;;
17848;SDS011;9050;48.746;9.232;2022-09-09T03:16:42;0.30;;;0.30;;
17848;SDS011;9050;48.746;9.232;2022-09-09T03:19:09;0.40;;;0.40;;
17848;SDS011;9050;48.746;9.232;2022-09-09T03:21:36;0.30;;;0.30;;
17848;SDS011;9050;48.746;9.232;2022-09-09T03:24:03;0.40;;;0.40;;
17848;SDS011;9050;48.746;9.232;2022-09-09T03:26:31;0.30;;;0.30;;
17848;SDS011;9050;48.746;9.232;2022-09-09T03:28:58;0.30;;;0.30;;
17848;SDS011;9050;48.746;9.232;2022-09-09T03:31:26;0.40;;;0.40;;
17848;SDS011;9050;48.746;9.232;2022-09-09T03:33:56;0.40;;;0.40;;
17848;SDS011;9050;48.746;9.232;2022-09-09T03:36:24;0.33;;;0.33;;
17848;SDS011;9050;48.746;9.232;2022-09-09T03:38:51;0.37;;;0.37;;
17848;SDS011;9050;48.746;9.232;2022-09-09T03:41:19;0.40;;;0.40;;
17848;SDS011;9050;48.746;9.232;2022-09-09T03:43:46;0.30;;;0.30;;
17848;SDS011;9050;48.746;9.232;2022-09-09T03:46:12;0.30;;;0.30;;
17848;SDS011;9050;48.746;9.232;2022-09-09T03:48:39;0.40;;;0.40;;
17848;SDS011;9050;48.746;9.232;2022-09-09T03:51:07;0.30;;;0.30;;
17848;SDS011;9050;48.746;9.232;2022-09-09T03:53:34;0.40;;;0.40;;
17848;SDS011;9050;48.746;9.232;2022-09-09T03:56:02;0.40;;;0.40;;
17848;SDS011;9050;48.746;9.232;2022-09-09T03:58:29;0.40;;;0.40;;
17848;SDS011;9050;48.746;9.232;2022-09-09T04:00:57;0.43;;;0.43;;
17848;SDS011;9050;48.746;9.232;2022-09-09T04:03:25;0.40;;;0.40;;
17848;SDS011;9050;48.746;9.232;2022-09-09T04:05:52;0.40;;;0.40;;
17848;SDS011;9050;48.746;9.232;2022-09-09T04:08:21;0.40;;;0.40;;
17848;SDS011;9050;48.746;9.232;2022-09-09T04:10:50;0.30;;;0.30;;
17848;SDS011;9050;48.746;9.232;2022-09-09T04:13:18;0.30;;;0.30;;
17848;SDS011;9050;48.746;9.232;2022-09-09T04:15:50;0.40;;;0.40;;
17848;SDS011;9050;48.746;9.232;2022-09-09T04:18:17;0.40;;;0.40;;
17848;SDS011;9050;48.746;9.232;2022-09-09T04:20:45;0.43;;;0.43;;
17848;SDS011;9050;48.746;9.232;2022-09-09T04:23:12;0.50;;;0.50;;
17848;SDS011;9050;48.746;9.232;2022-09-09T04:25:43;0.50;;;0.50;;
17848;SDS011;9050;48.746;9.232;2022-09-09T04:28:11;0.43;;;0.43;;
17848;SDS011;9050;48.746;9.232;2022-09-09T04:30:38;0.30;;;0.30;;
17848;SDS011;9050;48.746;9.232;2022-09-09T04:33:05;0.30;;;0.30;;
17848;SDS011;9050;48.746;9.232;2022-09-09T04:35:33;0.50;;;0.50;;
17848;SDS011;9050;48.746;9.232;2022-09-09T04:38:00;0.40;;;0.40;;
17848;SDS011;9050;48.746;9.232;2022-09-09T04:40:28;0.50;;;0.50;;
17848;SDS011;9050;48.746;9.232;2022-09-09T04:42:57;0.40;;;0.40;;
17848;SDS011;9050;48.746;9.232;2022-09-09T04:45:24;0.40;;;0.40;;
17848;SDS011;9050;48.746;9.232;2022-09-09T04:47:51;0.40;;;0.40;;
17848;SDS011;9050;48.746;9.232;2022-09-09T04:50:19;0.43;;;0.43;;
17848;SDS011;9050;48.746;9.232;2022-09-09T04:52:45;0.30;;;0.30;;
17848;SDS011;9050;48.746;9.232;2022-09-09T04:55:12;0.40;;;0.40;;
17848;SDS011;9050;48.746;9.232;2022-09-09T04:57:39;0.40;;;0.40;;
17848;SDS011;9050;48.746;9.232;2022-09-09T05:00:08;0.40;;;0.40;;
17848;SDS011;9050;48.746;9.232;2022-09-09T05:02:36;0.40;;;0.40;;
17848;SDS011;9050;48.746;9.232;2022-09-09T05:05:04;0.30;;;0.30;;
17848;SDS011;9050;48.746;9.232;2022-09-09T05:07:31;0.40;;;0.40;;
17848;SDS011;9050;48.746;9.232;2022-09-09T05:09:58;0.40;;;0.40;;
17848;SDS011;9050;48.746;9.232;2022-09-09T05:12:25;0.43;;;0.43;;
17848;SDS011;9050;48.746;9.232;2022-09-09T05:14:52;0.40;;;0.40;;
17848;SDS011;9050;48.746;9.232;2022-09-09T05:17:20;0.40;;;0.40;;
17848;SDS011;9050;48.746;9.232;2022-09-09T05:19:47;0.40;;;0.40;;
17848;SDS011;9050;48.746;9.232;2022-09-09T05:22:17;0.40;;;0.40;;
17848;SDS011;9050;48.746;9.232;2022-09-09T05:24:45;0.43;;;0.43;;
17848;SDS011;9050;48.746;9.232;2022-09-09T05:27:12;0.43;;;0.43;;
17848;SDS011;9050;48.746;9.232;2022-09-09T05:29:39;0.40;;;0.40;;
17848;SDS011;9050;48.746;9.232;2022-09-09T05:32:08;0.40;;;0.40;;
17848;SDS011;9050;48.746;9.232;2022-09-09T05:34:36;0.40;;;0.40;;
17848;SDS011;9050;48.746;9.232;2022-09-09T05:37:04;0.20;;;0.20;;
17848;SDS011;9050;48.746;9.232;2022-09-09T05:39:32;0.30;;;0.30;;
17848;SDS011;9050;48.746;9.232;2022-09-09T05:42:01;0.30;;;0.30;;
17848;SDS011;9050;48.746;9.232;2022-09-09T05:44:30;0.30;;;0.30;;
17848;SDS011;9050;48.746;9.232;2022-09-09T05:46:57;0.20;;;0.20;;
17848;SDS011;9050;48.746;9.232;2022-09-09T05:49:23;0.32;;;0.32;;
17848;SDS011;9050;48.746;9.232;2022-09-09T05:51:52;0.30;;;0.30;;
17848;SDS011;9050;48.746;9.232;2022-09-09T05:54:19;0.30;;;0.30;;
17848;SDS011;9050;48.746;9.232;2022-09-09T05:56:46;0.30;;;0.30;;
17848;SDS011;9050;48.746;9.232;2022-09-09T05:59:15;0.40;;;0.40;;
17848;SDS011;9050;48.746;9.232;2022-09-09T06:01:43;0.40;;;0.40;;
17848;SDS011;9050;48.746;9.232;2022-09-09T06:04:10;0.40;;;0.40;;
17848;SDS011;9050;48.746;9.232;2022-09-09T06:06:37;0.40;;;0.40;;
17848;SDS011;9050;48.746;9.232;2022-09-09T06:09:08;0.30;;;0.30;;
17848;SDS011;9050;48.746;9.232;2022-09-09T06:11:37;0.32;;;0.32;;
17848;SDS011;9050;48.746;9.232;2022-09-09T06:14:05;0.30;;;0.30;;
17848;SDS011;9050;48.746;9.232;2022-09-09T06:16:33;0.30;;;0.30;;
17848;SDS011;9050;48.746;9.232;2022-09-09T06:19:01;0.40;;;0.40;;
17848;SDS011;9050;48.746;9.232;2022-09-09T06:21:29;0.30;;;0.30;;
17848;SDS011;9050;48.746;9.232;2022-09-09T06:23:58;0.30;;;0.30;;
17848;SDS011;9050;48.746;9.232;2022-09-09T06:26:27;0.38;;;0.38;;
17848;SDS011;9050;48.746;9.232;2022-09-09T06:28:56;0.30;;;0.30;;
17848;SDS011;9050;48.746;9.232;2022-09-09T06:31:24;0.30;;;0.30;;
17848;SDS011;9050;48.746;9.232;2022-09-09T06:33:55;0.30;;;0.30;;
17848;SDS011;9050;48.746;9.232;2022-09-09T06:36:23;0.30;;;0.30;;
17848;SDS011;9050;48.746;9.232;2022-09-09T06:38:51;0.30;;;0.30;;
17848;SDS011;9050;48.746;9.232;2022-09-09T06:41:18;0.30;;;0.30;;
17848;SDS011;9050;48.746;9.232;2022-09-09T06:43:48;0.25;;;0.25;;
17848;SDS011;9050;48.746;9.232;2022-09-09T06:46:17;0.30;;;0.30;;
17848;SDS011;9050;48.746;9.232;2022-09-09T06:48:45;0.30;;;0.30;;
17848;SDS011;9050;48.746;9.232;2022-09-09T06:51:12;0.40;;;0.40;;
17848;SDS011;9050;48.746;9.232;2022-09-09T06:53:41;0.22;;;0.22;;
17848;SDS011;9050;48.746;9.232;2022-09-09T06:56:18;0.30;;;0.30;;
17848;SDS011;9050;48.746;9.232;2022-09-09T06:58:49;0.20;;;0.20;;
17848;SDS011;9050;48.746;9.232;2022-09-09T07:01:18;0.30;;;0.30;;
17848;SDS011;9050;48.746;9.232;2022-09-09T07:03:47;0.20;;;0.20;;
17848;SDS011;9050;48.746;9.232;2022-09-09T07:06:15;0.30;;;0.30;;
17848;SDS011;9050;48.746;9.232;2022-09-09T07:08:44;0.20;;;0.20;;
17848;SDS011;9050;48.746;9.232;2022-09-09T07:11:15;0.20;;;0.20;;
17848;SDS011;9050;48.746;9.232;2022-09-09T07:13:42;0.20;;;0.20;;
17848;SDS011;9050;48.746;9.232;2022-09-09T07:16:10;0.20;;;0.20;;
17848;SDS011;9050;48.746;9.232;2022-09-09T07:18:38;0.25;;;0.25;;
17848;SDS011;9050;48.746;9.232;2022-09-09T07:21:06;0.20;;;0.20;;
17848;SDS011;9050;48.746;9.232;2022-09-09T07:23:33;0.17;;;0.17;;
17848;SDS011;9050;48.746;9.232;2022-09-09T07:26:01;0.10;;;0.10;;
17848;SDS011;9050;48.746;9.232;2022-09-09T07:28:29;0.10;;;0.10;;
17848;SDS011;9050;48.746;9.232;2022-09-09T07:30:56;0.00;;;0.00;;
17848;SDS011;9050;48.746;9.232;2022-09-09T07:33:25;0.00;;;0.00;;
17848;SDS011;9050;48.746;9.232;2022-09-09T07:36:01;0.00;;;0.00;;
17848;SDS011;9050;48.746;9.232;2022-09-09T07:38:30;0.00;;;0.00;;
17848;SDS011;9050;48.746;9.232;2022-09-09T07:41:02;0.00;;;0.00;;
17848;SDS011;9050;48.746;9.232;2022-09-09T07:43:30;0.00;;;0.00;;
17848;SDS011;9050;48.746;9.232;2022-09-09T07:45:58;0.00;;;0.00;;
17848;SDS011;9050;48.746;9.232;2022-09-09T07:48:27;0.00;;;0.00;;
